createdAt,value
2022-08-29T00:00:59.725Z,6.10
2022-08-29T00:03:28.042Z,5.47
2022-08-29T00:05:56.941Z,5.55
2022-08-29T00:08:24.880Z,5.50
2022-08-29T00:10:51.883Z,4.97
2022-08-29T00:13:19.357Z,4.50
2022-08-29T00:15:46.786Z,4.75
2022-08-29T00:18:16.091Z,5.10
2022-08-29T00:20:44.796Z,5.32
2022-08-29T00:23:12.068Z,6.50
2022-08-29T00:25:39.492Z,5.88
2022-08-29T00:28:07.251Z,5.28
2022-08-29T00:30:35.459Z,5.28
2022-08-29T00:33:02.622Z,5.30
2022-08-29T00:35:35.251Z,5.40
2022-08-29T00:38:03.867Z,6.30
2022-08-29T00:40:54.242Z,5.03
2022-08-29T00:43:35.579Z,5.95
2022-08-29T00:46:40.553Z,6.07
2022-08-29T00:49:13.747Z,5.57
2022-08-29T00:51:41.315Z,6.15
2022-08-29T00:54:10.462Z,6.10
2022-08-29T00:56:39.447Z,5.40
2022-08-29T00:59:36.973Z,6.60
2022-08-29T01:02:05.649Z,6.35
2022-08-29T01:04:33.642Z,6.90
2022-08-29T01:07:01.142Z,6.32
2022-08-29T01:09:29.776Z,6.25
2022-08-29T01:12:29.352Z,6.90
2022-08-29T01:15:00.996Z,6.97
2022-08-29T01:17:44.682Z,7.10
2022-08-29T01:20:25.685Z,6.22
2022-08-29T01:23:29.639Z,6.63
2022-08-29T01:25:57.809Z,7.15
2022-08-29T01:28:34.098Z,7.30
2022-08-29T01:31:50.154Z,7.97
2022-08-29T01:34:03.843Z,6.95
2022-08-29T01:36:34.853Z,6.65
2022-08-29T01:39:01.900Z,7.30
2022-08-29T01:41:28.955Z,7.00
2022-08-29T01:43:56.828Z,7.65
2022-08-29T01:46:30.875Z,7.45
2022-08-29T01:48:58.534Z,7.43
2022-08-29T01:51:25.722Z,7.57
2022-08-29T01:53:53.316Z,8.07
2022-08-29T01:56:26.361Z,7.82
2022-08-29T01:58:55.266Z,8.40
2022-08-29T02:01:26.293Z,8.10
2022-08-29T02:03:54.908Z,7.80
2022-08-29T02:06:21.868Z,8.05
2022-08-29T02:08:48.717Z,7.60
2022-08-29T02:11:17.417Z,8.38
2022-08-29T02:13:49.869Z,8.52
2022-08-29T02:16:17.426Z,8.52
2022-08-29T02:18:44.864Z,7.55
2022-08-29T02:21:17.232Z,7.53
2022-08-29T02:23:44.503Z,7.25
2022-08-29T02:26:11.402Z,7.28
2022-08-29T02:28:38.758Z,7.88
2022-08-29T02:31:06.451Z,6.90
2022-08-29T02:33:33.526Z,6.82
2022-08-29T02:36:01.997Z,7.72
2022-08-29T02:38:29.623Z,7.18
2022-08-29T02:40:56.966Z,7.50
2022-08-29T02:43:24.827Z,6.75
2022-08-29T02:45:52.378Z,7.43
2022-08-29T02:48:19.584Z,7.32
2022-08-29T02:50:52.222Z,6.72
2022-08-29T02:53:22.472Z,8.02
2022-08-29T02:55:50.343Z,7.45
2022-08-29T02:58:17.610Z,8.00
2022-08-29T03:00:44.904Z,7.63
2022-08-29T03:03:12.043Z,8.27
2022-08-29T03:05:39.688Z,8.85
2022-08-29T03:08:09.065Z,8.48
2022-08-29T03:10:36.958Z,8.82
2022-08-29T03:13:05.414Z,8.98
2022-08-29T03:15:32.760Z,9.45
2022-08-29T03:17:59.716Z,10.30
2022-08-29T03:20:27.062Z,9.65
2022-08-29T03:22:54.853Z,9.98
2022-08-29T03:25:23.545Z,9.73
2022-08-29T03:27:50.620Z,12.57
2022-08-29T03:30:18.243Z,10.77
2022-08-29T03:32:46.001Z,10.57
2022-08-29T03:35:13.761Z,10.02
2022-08-29T03:37:41.290Z,10.23
2022-08-29T03:40:09.576Z,10.32
2022-08-29T03:42:37.066Z,10.60
2022-08-29T03:45:06.470Z,11.27
2022-08-29T03:47:33.791Z,10.43
2022-08-29T03:50:01.110Z,10.90
2022-08-29T03:52:28.376Z,11.05
2022-08-29T03:54:55.640Z,11.88
2022-08-29T03:57:22.916Z,11.32
2022-08-29T03:59:54.071Z,14.30
2022-08-29T04:02:21.307Z,11.50
2022-08-29T04:05:08.241Z,11.13
2022-08-29T04:07:39.082Z,12.05
2022-08-29T04:10:08.284Z,11.70
2022-08-29T04:12:35.224Z,12.18
2022-08-29T04:15:02.237Z,11.23
2022-08-29T04:17:29.343Z,12.23
2022-08-29T04:19:56.667Z,12.18
2022-08-29T04:22:23.980Z,12.23
2022-08-29T04:24:51.304Z,12.93
2022-08-29T04:27:18.171Z,12.32
2022-08-29T04:29:48.416Z,13.25
2022-08-29T04:32:18.358Z,13.43
2022-08-29T04:34:45.227Z,13.90
2022-08-29T04:37:12.145Z,12.95
2022-08-29T04:39:39.233Z,12.18
2022-08-29T04:42:06.522Z,13.00
2022-08-29T04:44:34.532Z,13.43
2022-08-29T04:47:01.493Z,13.93
2022-08-29T04:49:28.621Z,14.48
2022-08-29T04:51:55.888Z,14.00
2022-08-29T04:54:23.439Z,13.75
2022-08-29T04:56:50.341Z,14.82
2022-08-29T04:59:18.370Z,14.57
2022-08-29T05:01:47.824Z,15.57
2022-08-29T05:04:14.810Z,15.50
2022-08-29T05:06:41.987Z,16.05
2022-08-29T05:09:09.005Z,17.60
2022-08-29T05:11:36.321Z,18.10
2022-08-29T05:14:03.242Z,18.08
2022-08-29T05:16:31.262Z,17.55
2022-08-29T05:18:59.553Z,32.83
2022-08-29T05:21:35.174Z,17.58
2022-08-29T05:24:05.606Z,17.88
2022-08-29T05:26:36.016Z,17.00
2022-08-29T05:29:04.057Z,18.08
2022-08-29T05:31:37.075Z,18.05
2022-08-29T05:34:14.039Z,17.67
2022-08-29T05:36:52.581Z,16.98
2022-08-29T05:39:19.867Z,17.67
2022-08-29T05:41:46.759Z,17.33
2022-08-29T05:44:13.669Z,16.45
2022-08-29T05:46:41.266Z,16.95
2022-08-29T05:49:08.908Z,17.73
2022-08-29T05:51:39.705Z,18.58
2022-08-29T05:54:07.691Z,17.58
2022-08-29T05:56:34.968Z,18.10
2022-08-29T05:59:02.045Z,16.77
2022-08-29T06:01:32.662Z,17.38
2022-08-29T06:04:00.951Z,16.83
2022-08-29T06:06:29.186Z,18.17
2022-08-29T06:08:57.302Z,17.77
2022-08-29T06:11:28.212Z,17.02
2022-08-29T06:13:55.849Z,16.48
2022-08-29T06:16:24.839Z,20.30
2022-08-29T06:18:52.035Z,32.65
2022-08-29T06:21:19.910Z,16.10
2022-08-29T06:23:47.874Z,15.88
2022-08-29T06:26:16.049Z,15.43
2022-08-29T06:28:46.270Z,15.20
2022-08-29T06:31:17.661Z,16.23
2022-08-29T06:33:44.615Z,14.63
2022-08-29T06:36:12.580Z,15.90
2022-08-29T06:38:39.827Z,15.77
2022-08-29T06:41:13.041Z,15.48
2022-08-29T06:43:40.633Z,15.38
2022-08-29T06:46:08.800Z,15.90
2022-08-29T06:48:36.255Z,15.80
2022-08-29T06:51:04.149Z,16.17
2022-08-29T06:53:31.967Z,15.95
2022-08-29T06:56:05.544Z,26.67
2022-08-29T06:58:33.261Z,17.55
2022-08-29T07:01:06.943Z,16.73
2022-08-29T07:03:34.447Z,18.13
2022-08-29T07:06:01.400Z,18.20
2022-08-29T07:08:28.758Z,17.50
2022-08-29T07:10:55.698Z,18.58
2022-08-29T07:13:22.588Z,18.38
2022-08-29T07:15:49.624Z,18.17
2022-08-29T07:18:16.741Z,17.35
2022-08-29T07:20:44.200Z,18.52
2022-08-29T07:23:11.339Z,19.02
2022-08-29T07:25:39.042Z,20.30
2022-08-29T07:28:06.626Z,19.77
2022-08-29T07:30:34.983Z,19.00
2022-08-29T07:33:02.056Z,18.25
2022-08-29T07:35:30.920Z,18.38
2022-08-29T07:38:01.782Z,18.67
2022-08-29T07:40:29.608Z,17.90
2022-08-29T07:42:56.633Z,16.35
2022-08-29T07:45:23.547Z,14.00
2022-08-29T07:47:50.440Z,13.13
2022-08-29T07:50:17.378Z,13.68
2022-08-29T07:52:44.464Z,12.93
2022-08-29T07:55:12.077Z,12.60
2022-08-29T07:57:39.891Z,17.30
2022-08-29T08:00:12.219Z,12.57
2022-08-29T08:02:39.325Z,13.83
2022-08-29T08:05:07.284Z,12.68
2022-08-29T08:07:35.399Z,12.07
2022-08-29T08:10:04.000Z,11.65
2022-08-29T08:12:30.963Z,11.73
2022-08-29T08:14:58.423Z,11.38
2022-08-29T08:17:25.998Z,12.23
2022-08-29T08:19:52.954Z,14.52
2022-08-29T08:22:20.253Z,12.90
2022-08-29T08:24:48.610Z,12.38
2022-08-29T08:27:15.871Z,18.02
2022-08-29T08:29:44.332Z,15.70
2022-08-29T08:32:11.208Z,14.80
2022-08-29T08:34:38.108Z,15.30
2022-08-29T08:37:09.155Z,17.38
2022-08-29T08:39:37.091Z,16.08
2022-08-29T08:42:31.697Z,15.80
2022-08-29T08:45:26.866Z,17.73
2022-08-29T08:48:01.120Z,16.52
2022-08-29T08:50:43.574Z,23.00
2022-08-29T08:53:19.806Z,16.50
2022-08-29T08:55:58.101Z,17.70
2022-08-29T08:58:34.212Z,17.25
2022-08-29T09:01:14.604Z,17.70
2022-08-29T09:03:56.834Z,15.88
2022-08-29T09:06:45.430Z,17.75
2022-08-29T09:09:18.589Z,15.65
2022-08-29T09:12:14.408Z,14.80
2022-08-29T09:15:03.528Z,15.18
2022-08-29T09:17:53.385Z,15.98
2022-08-29T09:20:24.889Z,13.48
2022-08-29T09:23:06.041Z,14.23
2022-08-29T09:25:36.172Z,14.20
2022-08-29T09:28:07.014Z,13.63
2022-08-29T09:30:36.717Z,13.80
2022-08-29T09:33:09.179Z,14.30
2022-08-29T09:35:44.984Z,13.93
2022-08-29T09:38:17.654Z,16.92
2022-08-29T09:40:53.438Z,16.63
2022-08-29T09:43:42.825Z,15.15
2022-08-29T09:46:25.092Z,16.20
2022-08-29T09:48:58.086Z,16.33
2022-08-29T09:51:31.043Z,17.75
2022-08-29T09:56:40.912Z,14.70
2022-08-29T09:59:39.739Z,14.93
2022-08-29T10:02:43.936Z,12.48
2022-08-29T10:05:35.099Z,13.05
2022-08-29T10:08:05.610Z,11.27
2022-08-29T10:10:36.298Z,11.32
2022-08-29T10:13:03.604Z,9.70
2022-08-29T10:15:59.558Z,9.50
2022-08-29T10:18:50.087Z,8.88
2022-08-29T10:21:32.692Z,8.82
2022-08-29T10:24:21.109Z,9.48
2022-08-29T10:27:07.179Z,9.27
2022-08-29T10:29:39.844Z,8.18
2022-08-29T10:32:30.663Z,7.70
2022-08-29T10:35:15.973Z,7.65
2022-08-29T10:38:12.735Z,7.95
2022-08-29T10:40:43.191Z,7.15
2022-08-29T10:43:20.118Z,9.10
2022-08-29T10:45:56.098Z,11.02
2022-08-29T10:49:21.204Z,7.45
2022-08-29T10:51:53.549Z,7.13
2022-08-29T10:54:29.174Z,7.53
2022-08-29T10:56:56.166Z,7.30
2022-08-29T10:59:58.146Z,7.82
2022-08-29T11:02:38.925Z,9.90
2022-08-29T11:05:18.803Z,6.95
2022-08-29T11:08:32.000Z,7.05
2022-08-29T11:10:59.177Z,7.30
2022-08-29T11:13:40.707Z,7.82
2022-08-29T11:16:17.484Z,6.28
2022-08-29T11:18:58.269Z,6.53
2022-08-29T11:21:40.665Z,6.78
2022-08-29T11:24:10.237Z,7.22
2022-08-29T11:26:37.487Z,7.57
2022-08-29T11:29:33.579Z,8.35
2022-08-29T11:32:36.309Z,7.93
2022-08-29T11:35:20.669Z,8.50
2022-08-29T11:38:05.977Z,7.30
2022-08-29T11:40:48.243Z,6.28
2022-08-29T11:43:20.832Z,6.38
2022-08-29T11:46:01.706Z,5.05
2022-08-29T11:48:41.871Z,4.68
2022-08-29T11:51:29.597Z,4.97
2022-08-29T11:53:57.171Z,6.28
2022-08-29T11:56:28.742Z,4.05
2022-08-29T11:58:59.145Z,3.65
2022-08-29T12:01:25.978Z,4.35
2022-08-29T12:03:55.472Z,3.78
2022-08-29T12:06:40.835Z,3.63
2022-08-29T12:09:14.367Z,4.13
2022-08-29T12:12:02.853Z,4.28
2022-08-29T12:14:37.875Z,3.95
2022-08-29T12:17:08.279Z,4.53
2022-08-29T12:19:50.022Z,4.22
2022-08-29T12:22:48.148Z,3.28
2022-08-29T12:25:41.434Z,4.07
2022-08-29T12:28:32.313Z,3.72
2022-08-29T12:30:59.442Z,3.78
2022-08-29T12:33:43.306Z,3.65
2022-08-29T12:36:52.524Z,4.47
2022-08-29T12:39:58.555Z,3.80
2022-08-29T12:43:02.850Z,4.13
2022-08-29T12:45:31.987Z,4.75
2022-08-29T12:48:04.834Z,4.13
2022-08-29T12:53:02.748Z,4.00
2022-08-29T12:55:37.000Z,4.22
2022-08-29T12:58:04.299Z,3.35
2022-08-29T13:00:32.928Z,3.80
2022-08-29T13:02:59.830Z,3.30
2022-08-29T13:05:29.634Z,2.72
2022-08-29T13:07:59.709Z,3.45
2022-08-29T13:10:28.217Z,2.63
2022-08-29T13:13:06.489Z,3.22
2022-08-29T13:15:33.677Z,18.30
2022-08-29T13:18:01.460Z,3.10
2022-08-29T13:20:46.184Z,2.42
2022-08-29T13:23:13.416Z,3.55
2022-08-29T13:26:09.411Z,4.13
2022-08-29T13:28:51.052Z,2.60
2022-08-29T13:31:19.043Z,3.25
2022-08-29T13:33:46.351Z,2.80
2022-08-29T13:36:31.113Z,2.83
2022-08-29T13:39:41.094Z,2.80
2022-08-29T13:42:18.846Z,2.88
2022-08-29T13:44:46.055Z,2.92
2022-08-29T13:47:25.219Z,2.50
2022-08-29T13:49:56.569Z,2.60
2022-08-29T13:52:24.005Z,2.67
2022-08-29T13:57:26.393Z,2.08
2022-08-29T13:59:53.438Z,2.75
2022-08-29T14:02:20.701Z,5.15
2022-08-29T14:04:48.445Z,4.50
2022-08-29T14:07:28.067Z,3.25
2022-08-29T14:09:55.342Z,2.45
2022-08-29T14:12:33.427Z,2.13
2022-08-29T14:15:06.793Z,2.50
2022-08-29T14:17:36.951Z,2.65
2022-08-29T14:20:04.997Z,2.45
2022-08-29T14:22:31.901Z,2.50
2022-08-29T14:24:58.849Z,2.47
2022-08-29T14:27:25.953Z,2.85
2022-08-29T14:29:53.221Z,2.83
2022-08-29T14:32:20.631Z,4.40
2022-08-29T14:34:50.913Z,9.43
2022-08-29T14:37:20.126Z,6.80
2022-08-29T14:39:49.990Z,2.72
2022-08-29T14:42:18.186Z,3.35
2022-08-29T14:44:45.384Z,4.03
2022-08-29T14:47:12.753Z,2.70
2022-08-29T14:49:40.229Z,2.17
2022-08-29T14:52:07.266Z,2.30
2022-08-29T14:54:34.326Z,2.38
2022-08-29T14:57:01.242Z,2.35
2022-08-29T14:59:28.211Z,2.10
2022-08-29T15:01:55.813Z,2.38
2022-08-29T15:04:34.936Z,2.60
2022-08-29T15:07:05.339Z,2.40
2022-08-29T15:09:32.645Z,3.72
2022-08-29T15:11:59.691Z,3.20
2022-08-29T15:14:26.675Z,2.53
2022-08-29T15:16:53.526Z,2.17
2022-08-29T15:22:09.230Z,2.28
2022-08-29T15:24:36.647Z,2.92
2022-08-29T15:27:04.355Z,3.15
2022-08-29T15:29:31.636Z,2.78
2022-08-29T15:31:58.683Z,4.75
2022-08-29T15:34:26.160Z,3.15
2022-08-29T15:36:54.891Z,3.65
2022-08-29T15:39:22.605Z,5.50
2022-08-29T15:41:50.085Z,2.72
2022-08-29T15:44:17.624Z,3.63
2022-08-29T15:46:51.036Z,4.95
2022-08-29T15:49:19.916Z,2.65
2022-08-29T15:51:48.407Z,2.63
2022-08-29T15:54:15.860Z,2.80
2022-08-29T15:56:43.137Z,3.53
2022-08-29T15:59:13.098Z,3.05
2022-08-29T16:01:45.794Z,3.50
2022-08-29T16:04:14.024Z,4.47
2022-08-29T16:06:41.424Z,4.50
2022-08-29T16:09:15.040Z,3.58
2022-08-29T16:11:46.228Z,3.25
2022-08-29T16:17:02.137Z,3.08
2022-08-29T16:19:29.809Z,3.40
2022-08-29T16:21:59.963Z,3.78
2022-08-29T16:24:29.884Z,3.45
2022-08-29T16:26:59.004Z,3.50
2022-08-29T16:29:26.476Z,4.10
2022-08-29T16:31:58.039Z,3.75
2022-08-29T16:34:26.533Z,3.25
2022-08-29T16:36:59.320Z,4.10
2022-08-29T16:39:27.296Z,3.80
2022-08-29T16:41:54.422Z,4.40
2022-08-29T16:44:22.322Z,5.45
2022-08-29T16:46:49.623Z,4.43
2022-08-29T16:49:17.041Z,15.02
2022-08-29T16:51:44.345Z,51.78
2022-08-29T16:54:12.176Z,4.25
2022-08-29T16:56:39.858Z,4.60
2022-08-29T16:59:07.499Z,8.63
2022-08-29T17:01:44.708Z,4.22
2022-08-29T17:04:24.047Z,7.88
2022-08-29T17:06:52.458Z,4.70
2022-08-29T17:09:21.722Z,4.90
2022-08-29T17:11:49.051Z,7.13
2022-08-29T17:14:16.924Z,8.05
2022-08-29T17:16:46.215Z,5.93
2022-08-29T17:19:15.188Z,5.18
2022-08-29T17:21:43.329Z,5.13
2022-08-29T17:24:11.266Z,5.55
2022-08-29T17:26:42.740Z,6.07
2022-08-29T17:29:11.062Z,7.72
2022-08-29T17:31:38.631Z,7.18
2022-08-29T17:34:07.532Z,7.10
2022-08-29T17:36:36.688Z,10.80
2022-08-29T17:39:05.494Z,11.68
2022-08-29T17:41:34.876Z,7.55
2022-08-29T17:44:02.093Z,6.95
2022-08-29T17:46:29.690Z,6.45
2022-08-29T17:48:56.893Z,5.78
2022-08-29T17:51:24.156Z,6.85
2022-08-29T17:53:51.642Z,9.05
2022-08-29T17:56:25.124Z,5.53
2022-08-29T17:58:52.028Z,6.47
2022-08-29T18:01:19.108Z,4.80
2022-08-29T18:03:46.979Z,5.63
2022-08-29T18:06:15.432Z,5.78
2022-08-29T18:08:45.881Z,7.55
2022-08-29T18:13:43.170Z,6.00
2022-08-29T18:16:10.729Z,5.70
2022-08-29T18:18:38.934Z,4.55
2022-08-29T18:21:06.349Z,5.60
2022-08-29T18:23:33.594Z,5.28
2022-08-29T18:26:01.019Z,11.68
2022-08-29T18:28:28.311Z,12.30
2022-08-29T18:30:55.944Z,4.80
2022-08-29T18:33:23.210Z,5.30
2022-08-29T18:35:52.078Z,6.65
2022-08-29T18:38:19.490Z,4.55
2022-08-29T18:40:47.621Z,6.63
2022-08-29T18:43:21.509Z,7.35
2022-08-29T18:45:49.893Z,5.75
2022-08-29T18:48:17.487Z,5.03
2022-08-29T18:50:44.830Z,4.80
2022-08-29T18:53:19.710Z,5.07
2022-08-29T18:55:50.981Z,5.93
2022-08-29T18:58:21.130Z,5.65
2022-08-29T19:00:48.085Z,4.40
2022-08-29T19:03:15.503Z,4.93
2022-08-29T19:05:48.478Z,4.18
2022-08-29T19:08:21.085Z,4.30
2022-08-29T19:10:48.823Z,4.45
2022-08-29T19:13:17.573Z,4.15
2022-08-29T19:15:47.310Z,4.90
2022-08-29T19:18:15.828Z,5.50
2022-08-29T19:21:01.793Z,5.03
2022-08-29T19:23:41.111Z,6.03
2022-08-29T19:26:12.128Z,6.80
2022-08-29T19:31:14.980Z,6.50
2022-08-29T19:33:43.394Z,5.40
2022-08-29T19:36:10.434Z,5.30
2022-08-29T19:38:37.774Z,5.28
2022-08-29T19:41:05.617Z,5.38
2022-08-29T19:43:33.806Z,5.47
2022-08-29T19:46:02.533Z,4.55
2022-08-29T19:48:29.605Z,5.65
2022-08-29T19:50:57.186Z,4.97
2022-08-29T19:53:26.173Z,4.55
2022-08-29T19:55:53.973Z,4.00
2022-08-29T19:58:22.880Z,4.40
2022-08-29T20:00:58.153Z,3.60
2022-08-29T20:03:25.414Z,4.40
2022-08-29T20:05:52.673Z,3.75
2022-08-29T20:08:21.213Z,4.38
2022-08-29T20:10:50.184Z,4.18
2022-08-29T20:13:17.528Z,5.07
2022-08-29T20:15:45.076Z,4.00
2022-08-29T20:18:12.974Z,3.38
2022-08-29T20:20:40.318Z,3.60
2022-08-29T20:23:08.065Z,3.33
2022-08-29T20:25:35.491Z,3.40
2022-08-29T20:28:04.075Z,3.80
2022-08-29T20:30:33.017Z,3.97
2022-08-29T20:33:00.321Z,3.95
2022-08-29T20:35:46.315Z,3.70
2022-08-29T20:38:13.615Z,4.13
2022-08-29T20:40:46.702Z,4.00
2022-08-29T20:45:44.149Z,3.63
2022-08-29T20:48:12.509Z,4.00
2022-08-29T20:50:39.954Z,4.15
2022-08-29T20:53:07.587Z,3.33
2022-08-29T20:55:34.970Z,3.72
2022-08-29T20:58:02.156Z,4.22
2022-08-29T21:00:29.109Z,3.65
2022-08-29T21:03:14.917Z,4.22
2022-08-29T21:05:45.704Z,4.05
2022-08-29T21:08:20.022Z,3.88
2022-08-29T21:10:47.914Z,30.23
2022-08-29T21:13:15.337Z,4.25
2022-08-29T21:15:44.214Z,3.05
2022-08-29T21:18:13.463Z,3.80
2022-08-29T21:20:54.012Z,3.28
2022-08-29T21:23:23.007Z,3.53
2022-08-29T21:25:58.878Z,3.90
2022-08-29T21:28:27.775Z,9.02
2022-08-29T21:30:54.944Z,4.25
2022-08-29T21:33:22.809Z,4.07
2022-08-29T21:35:50.339Z,3.75
2022-08-29T21:38:18.472Z,3.78
2022-08-29T21:40:50.416Z,3.83
2022-08-29T21:43:19.370Z,3.42
2022-08-29T21:45:47.245Z,3.88
2022-08-29T21:48:14.535Z,3.47
2022-08-29T21:50:41.521Z,3.67
2022-08-29T21:53:15.194Z,3.60
2022-08-29T21:55:42.451Z,3.35
2022-08-29T21:58:09.471Z,3.90
2022-08-29T22:00:37.084Z,4.00
2022-08-29T22:03:06.849Z,4.25
2022-08-29T22:05:34.503Z,3.95
2022-08-29T22:08:04.329Z,3.25
2022-08-29T22:10:35.283Z,3.70
2022-08-29T22:13:04.173Z,4.20
2022-08-29T22:15:49.676Z,3.80
2022-08-29T22:18:17.092Z,3.85
2022-08-29T22:20:46.732Z,4.22
2022-08-29T22:23:18.855Z,3.78
2022-08-29T22:25:47.630Z,3.80
2022-08-29T22:28:15.243Z,3.75
2022-08-29T22:30:42.177Z,4.32
2022-08-29T22:33:10.714Z,4.18
2022-08-29T22:35:44.168Z,3.88
2022-08-29T22:38:11.511Z,4.28
2022-08-29T22:40:40.483Z,3.95
2022-08-29T22:43:07.696Z,4.10
2022-08-29T22:45:34.552Z,3.65
2022-08-29T22:48:01.845Z,4.75
2022-08-29T22:50:29.244Z,4.43
2022-08-29T22:52:57.906Z,3.95
2022-08-29T22:57:51.672Z,3.67
2022-08-29T23:00:21.547Z,4.05
2022-08-29T23:02:49.007Z,4.82
2022-08-29T23:05:17.227Z,4.03
2022-08-29T23:07:44.307Z,4.30
2022-08-29T23:10:13.019Z,4.30
2022-08-29T23:12:40.876Z,4.15
2022-08-29T23:15:12.479Z,3.58
2022-08-29T23:17:39.775Z,4.05
2022-08-29T23:20:09.394Z,4.05
2022-08-29T23:22:38.760Z,4.50
2022-08-29T23:25:06.965Z,4.32
2022-08-29T23:27:34.482Z,4.50
2022-08-29T23:30:02.044Z,4.40
2022-08-29T23:32:29.041Z,4.57
2022-08-29T23:34:56.203Z,4.82
2022-08-29T23:37:23.488Z,5.03
2022-08-29T23:39:50.967Z,4.45
2022-08-29T23:42:18.302Z,4.30
2022-08-29T23:44:45.880Z,4.53
2022-08-29T23:47:15.671Z,4.65
2022-08-29T23:49:42.773Z,4.45
2022-08-29T23:52:10.086Z,4.18
2022-08-29T23:54:37.397Z,4.35
2022-08-29T23:57:04.876Z,4.95
2022-08-29T23:59:51.725Z,4.60
